Time;durP1;ratioP1;P1;durP2;ratioP2;P2;SDS_P1;SDS_P2;PMS_P1;PMS_P2;Temp;Humidity;BMP_temperature;BMP_pressure;BME280_temperature;BME280_humidity;BME280_pressure;Samples;Min_cycle;Max_cycle;Signal;HPM_P1;HPM_P2
2021/01/15 00:01:48;;;;;;;9.23;7.40;;;;;;;0.98;70.67;95525.84;5040150;28;20881;-82
2021/01/15 00:04:15;;;;;;;7.83;6.73;;;;;;;1.01;70.55;95519.72;5030638;28;20198;-82
2021/01/15 00:06:41;;;;;;;6.60;5.90;;;;;;;0.83;71.37;95518.63;5030941;28;20216;-81
2021/01/15 00:09:07;;;;;;;6.13;5.50;;;;;;;0.62;71.86;95521.06;5031325;28;20218;-82
2021/01/15 00:11:34;;;;;;;7.87;6.43;;;;;;;0.57;71.71;95511.31;5030846;28;20194;-82
2021/01/15 00:14:02;;;;;;;7.10;6.07;;;;;;;0.55;72.39;95520.75;5029533;28;20646;-82
2021/01/15 00:16:29;;;;;;;7.57;6.10;;;;;;;0.68;72.17;95513.81;5031203;28;20202;-80
2021/01/15 00:18:56;;;;;;;6.83;5.70;;;;;;;0.73;71.75;95513.47;5030795;28;20622;-81
2021/01/15 00:21:25;;;;;;;6.70;6.00;;;;;;;0.68;71.66;95513.81;5034777;28;20202;-82
2021/01/15 00:23:53;;;;;;;7.43;6.10;;;;;;;0.60;72.43;95518.66;5033158;28;20214;-80
2021/01/15 00:26:20;;;;;;;6.87;6.17;;;;;;;0.54;72.72;95523.41;5034530;28;20209;-82
2021/01/15 00:28:47;;;;;;;9.70;6.80;;;;;;;0.50;73.30;95519.50;5033524;28;20226;-82
2021/01/15 00:31:13;;;;;;;8.37;6.63;;;;;;;0.53;72.96;95520.06;5034182;28;20198;-81
2021/01/15 00:33:39;;;;;;;7.60;6.60;;;;;;;0.53;72.77;95515.00;5034115;28;20194;-81
2021/01/15 00:36:06;;;;;;;6.93;6.17;;;;;;;0.61;72.42;95519.47;5034503;28;20202;-82
2021/01/15 00:38:33;;;;;;;6.90;6.20;;;;;;;0.59;72.55;95517.03;5034197;28;20206;-80
2021/01/15 00:41:00;;;;;;;7.50;6.33;;;;;;;0.44;72.70;95519.94;5033742;28;20206;-82
2021/01/15 00:43:26;;;;;;;7.07;6.00;;;;;;;0.46;72.34;95525.69;5033819;28;20217;-80
2021/01/15 00:45:52;;;;;;;7.10;6.03;;;;;;;0.34;72.89;95517.31;5034073;28;20660;-81
2021/01/15 00:48:19;;;;;;;7.33;5.97;;;;;;;0.38;72.74;95520.44;5033622;28;20271;-82
2021/01/15 00:50:45;;;;;;;7.07;5.53;;;;;;;0.54;72.43;95524.22;5034306;28;20590;-79
2021/01/15 00:53:11;;;;;;;7.03;6.17;;;;;;;0.73;72.09;95526.16;5033534;28;20202;-82
2021/01/15 00:55:37;;;;;;;7.00;6.07;;;;;;;0.82;71.16;95520.34;5033348;28;20205;-80
2021/01/15 00:58:03;;;;;;;8.10;6.63;;;;;;;0.87;70.94;95522.53;5033492;28;20724;-81
2021/01/15 01:00:30;;;;;;;8.47;6.40;;;;;;;0.93;70.54;95524.59;5034309;28;20190;-81
2021/01/15 01:02:56;;;;;;;7.07;6.07;;;;;;;1.00;70.35;95523.19;5054649;28;20221;-83
2021/01/15 01:05:22;;;;;;;9.03;6.33;;;;;;;0.84;69.95;95523.56;5034204;28;20195;-80
2021/01/15 01:07:48;;;;;;;7.63;6.80;;;;;;;0.86;70.37;95510.78;5033976;28;20229;-82
2021/01/15 01:10:14;;;;;;;8.63;6.17;;;;;;;0.94;70.64;95511.81;5033891;28;20209;-81
2021/01/15 01:12:42;;;;;;;7.67;6.80;;;;;;;0.95;70.49;95518.50;5033442;28;20562;-81
2021/01/15 01:15:09;;;;;;;10.63;6.60;;;;;;;1.03;70.17;95518.69;5033722;28;20735;-81
2021/01/15 01:17:35;;;;;;;8.00;7.07;;;;;;;1.03;70.13;95516.16;5033929;28;20229;-83
2021/01/15 01:20:01;;;;;;;7.13;6.27;;;;;;;1.00;69.54;95511.31;5033452;28;20194;-82
2021/01/15 01:22:27;;;;;;;7.17;6.47;;;;;;;1.02;70.03;95516.28;5033836;28;20229;-81
2021/01/15 01:24:53;;;;;;;9.80;7.23;;;;;;;0.89;69.72;95515.63;5033311;28;20202;-82
2021/01/15 01:27:19;;;;;;;7.10;6.40;;;;;;;0.81;69.87;95518.75;5033340;28;20222;-80
2021/01/15 01:29:46;;;;;;;8.17;6.93;;;;;;;0.79;70.01;95514.72;5032701;28;20253;-81
2021/01/15 01:32:12;;;;;;;8.17;7.03;;;;;;;0.84;70.12;95510.91;5033448;28;20272;-81
2021/01/15 01:34:38;;;;;;;7.90;6.77;;;;;;;0.75;70.18;95516.69;5032752;28;20210;-80
2021/01/15 01:37:04;;;;;;;7.73;6.90;;;;;;;0.69;70.57;95514.63;5033554;28;20271;-81
2021/01/15 01:39:29;;;;;;;8.47;7.37;;;;;;;0.62;70.45;95521.06;5032826;28;20206;-79
2021/01/15 01:41:55;;;;;;;9.17;7.10;;;;;;;0.64;70.04;95514.16;5033455;28;20218;-81
2021/01/15 01:44:21;;;;;;;9.80;6.97;;;;;;;0.50;70.56;95519.50;5033143;28;20194;-82
2021/01/15 01:46:48;;;;;;;8.03;6.20;;;;;;;0.37;70.70;95519.63;5032906;28;20205;-82
2021/01/15 01:49:14;;;;;;;8.23;6.83;;;;;;;0.22;71.37;95513.97;5032734;28;20717;-82
2021/01/15 01:51:41;;;;;;;7.90;6.83;;;;;;;0.32;71.36;95526.75;5033156;28;20209;-81
2021/01/15 01:54:09;;;;;;;8.73;6.70;;;;;;;0.36;71.13;95520.53;5032632;28;20330;-80
2021/01/15 01:56:35;;;;;;;7.77;6.97;;;;;;;0.25;71.07;95525.59;5032499;28;20685;-80
2021/01/15 01:59:01;;;;;;;8.00;7.20;;;;;;;0.33;71.30;95526.63;5032110;28;20222;-80
2021/01/15 02:01:27;;;;;;;7.70;6.90;;;;;;;0.32;70.79;95519.16;5042157;28;20209;-81
2021/01/15 02:04:00;;;;;;;7.57;6.60;;;;;;;0.30;70.91;95518.47;5034407;28;20305;-82
2021/01/15 02:06:27;;;;;;;8.17;7.20;;;;;;;0.37;70.96;95519.63;5032777;28;20190;-81
2021/01/15 02:08:53;;;;;;;8.33;6.63;;;;;;;0.43;70.34;95521.66;5033078;28;20874;-82
2021/01/15 02:11:34;;;;;;;7.07;6.37;;;;;;;0.46;70.38;95518.91;5032714;28;20198;-82
2021/01/15 02:14:06;;;;;;;8.03;6.47;;;;;;;0.32;70.39;95524.22;5032754;28;20194;-81
2021/01/15 02:16:33;;;;;;;7.50;6.70;;;;;;;0.12;71.08;95522.38;5032763;28;20190;-82
2021/01/15 02:19:18;;;;;;;8.47;7.57;;;;;;;0.16;70.95;95524.56;5032440;28;20602;-80
2021/01/15 02:22:20;;;;;;;7.97;6.73;;;;;;;0.12;70.74;95528.25;5032462;28;20625;-80
2021/01/15 02:25:09;;;;;;;7.77;6.47;;;;;;;0.06;71.19;95522.81;5020259;28;20213;-81
2021/01/15 02:28:01;;;;;;;8.53;7.30;;;;;;;0.06;71.15;95531.22;5032235;28;20222;-80
2021/01/15 02:30:43;;;;;;;9.07;7.33;;;;;;;0.14;71.10;95534.00;5032812;28;20210;-81
2021/01/15 02:33:17;;;;;;;9.17;7.23;;;;;;;0.22;70.79;95523.28;5032072;28;20197;-81
2021/01/15 02:35:52;;;;;;;8.27;6.90;;;;;;;0.32;70.75;95519.16;5032308;28;20220;-80
2021/01/15 02:38:40;;;;;;;8.90;7.60;;;;;;;0.32;70.66;95526.75;5014253;28;20223;-81
2021/01/15 02:41:18;;;;;;;11.40;7.50;;;;;;;0.31;70.16;95525.13;5031582;28;20233;-81
2021/01/15 02:43:48;;;;;;;9.00;7.83;;;;;;;0.15;70.55;95525.50;5031654;28;20222;-79
2021/01/15 02:46:17;;;;;;;9.93;8.20;;;;;;;-0.07;71.43;95525.47;5031757;28;20202;-81
2021/01/15 02:48:47;;;;;;;11.03;8.07;;;;;;;-0.08;71.78;95523.84;5031251;28;20214;-81
2021/01/15 02:51:14;;;;;;;9.20;7.80;;;;;;;-0.03;71.56;95521.78;5031854;28;20206;-82
2021/01/15 02:53:40;;;;;;;11.63;8.40;;;;;;;0.06;71.40;95521.09;5031716;28;20194;-81
2021/01/15 02:56:06;;;;;;;9.57;8.27;;;;;;;0.10;71.25;95527.56;5031773;28;20206;-82
2021/01/15 02:58:32;;;;;;;8.63;7.73;;;;;;;0.20;70.74;95527.66;5030896;28;20264;-81
2021/01/15 03:00:58;;;;;;;11.17;8.67;;;;;;;0.24;70.96;95534.91;5036366;28;20201;-80
2021/01/15 03:03:32;;;;;;;8.50;7.60;;;;;;;0.36;70.74;95528.13;5042556;28;20351;-81
2021/01/15 03:06:03;;;;;;;10.03;7.70;;;;;;;0.35;70.11;95536.66;5031126;28;20205;-82
2021/01/15 03:08:29;;;;;;;9.03;8.13;;;;;;;0.43;70.35;95528.47;5031376;28;20225;-81
2021/01/15 03:11:00;;;;;;;10.40;7.77;;;;;;;0.49;69.68;95533.06;5032143;28;20206;-81
2021/01/15 03:13:28;;;;;;;10.57;8.67;;;;;;;0.46;69.94;95541.69;5031401;28;20198;-81
2021/01/15 03:15:56;;;;;;;9.67;7.97;;;;;;;0.50;69.80;95537.22;5031591;28;20206;-82
2021/01/15 03:18:23;;;;;;;10.80;8.37;;;;;;;0.51;69.50;95538.84;5030822;28;20214;-82
2021/01/15 03:20:49;;;;;;;8.73;7.83;;;;;;;0.40;69.76;95543.88;5031302;28;20206;-82
2021/01/15 03:23:16;;;;;;;10.03;8.47;;;;;;;0.42;69.74;95540.31;5031615;28;20221;-80
2021/01/15 03:25:42;;;;;;;9.53;8.53;;;;;;;0.43;69.78;95541.94;5031494;28;20205;-81
2021/01/15 03:28:08;;;;;;;12.40;8.57;;;;;;;0.27;70.01;95547.34;5030563;28;20887;-80
2021/01/15 03:30:34;;;;;;;10.87;8.57;;;;;;;0.05;70.58;95549.06;5031692;28;20198;-81
2021/01/15 03:33:01;;;;;;;10.00;8.37;;;;;;;-0.11;71.09;95545.13;5030791;28;20205;-80
2021/01/15 03:35:29;;;;;;;12.67;9.33;;;;;;;-0.10;71.85;95545.94;5030471;28;20202;-81
2021/01/15 03:37:57;;;;;;;9.93;8.23;;;;;;;-0.06;71.87;95554.91;5030742;28;20713;-81
2021/01/15 03:40:25;;;;;;;12.07;8.97;;;;;;;0.13;71.66;95550.09;5031301;28;20209;-82
2021/01/15 03:42:51;;;;;;;10.70;8.90;;;;;;;0.23;70.88;95552.75;5032024;28;20222;-82
2021/01/15 03:45:17;;;;;;;11.13;8.97;;;;;;;0.18;70.58;95553.13;5010756;28;20195;-82
2021/01/15 03:47:45;;;;;;;11.77;9.23;;;;;;;0.28;70.48;95558.28;5011159;28;20300;-81
2021/01/15 03:50:12;;;;;;;9.63;8.63;;;;;;;0.32;70.28;95564.72;5030346;28;20564;-81
2021/01/15 03:52:38;;;;;;;10.07;8.80;;;;;;;0.26;70.45;95560.91;5030899;28;20194;-80
2021/01/15 03:55:05;;;;;;;12.43;9.20;;;;;;;0.30;70.46;95561.50;5030533;28;20701;-82
2021/01/15 03:57:34;;;;;;;11.07;9.20;;;;;;;0.16;70.55;95560.00;5030845;28;20228;-81
2021/01/15 04:00:01;;;;;;;11.77;9.37;;;;;;;0.14;70.57;95561.03;5031458;28;20547;-82
2021/01/15 04:02:27;;;;;;;12.07;9.13;;;;;;;0.10;70.96;95552.84;5048169;28;20217;-82
2021/01/15 04:04:53;;;;;;;9.70;8.67;;;;;;;0.17;70.33;95561.63;5034108;28;20190;-81
2021/01/15 04:07:19;;;;;;;10.60;8.63;;;;;;;0.22;70.32;95559.53;5030557;28;20221;-82
2021/01/15 04:09:45;;;;;;;12.53;9.43;;;;;;;0.26;70.20;95560.13;5030711;28;20616;-82
2021/01/15 04:12:11;;;;;;;11.70;9.67;;;;;;;0.27;70.78;95564.25;5030307;28;20202;-81
2021/01/15 04:14:41;;;;;;;10.47;8.70;;;;;;;0.24;70.34;95557.69;5030999;28;20295;-80
2021/01/15 04:17:08;;;;;;;11.53;9.57;;;;;;;0.03;70.78;95559.28;5031051;28;20206;-80
2021/01/15 04:19:34;;;;;;;10.93;8.77;;;;;;;0.09;70.76;95565.63;5030627;28;20198;-80
2021/01/15 04:22:00;;;;;;;10.23;8.93;;;;;;;0.08;70.83;95566.53;5031069;28;20194;-81
2021/01/15 04:24:26;;;;;;;13.53;10.20;;;;;;;0.17;70.75;95569.22;5030627;28;20249;-81
2021/01/15 04:26:53;;;;;;;11.63;9.60;;;;;;;0.27;70.72;95567.59;5031065;28;20194;-81
2021/01/15 04:29:21;;;;;;;11.63;9.87;;;;;;;0.25;70.28;95582.09;5030529;28;20610;-80
2021/01/15 04:31:49;;;;;;;11.27;9.67;;;;;;;0.12;70.84;95576.34;5030110;28;20225;-80
2021/01/15 04:34:15;;;;;;;11.37;10.07;;;;;;;0.15;70.48;95570.25;5029853;28;20684;-81
2021/01/15 04:36:42;;;;;;;12.30;9.80;;;;;;;0.08;70.52;95577.47;5030234;28;20281;-81
2021/01/15 04:39:09;;;;;;;10.93;9.10;;;;;;;0.13;71.00;95570.34;5030675;28;20226;-79
2021/01/15 04:41:36;;;;;;;9.67;8.53;;;;;;;0.18;70.83;95570.84;5030753;28;20221;-82
2021/01/15 04:44:03;;;;;;;11.30;9.53;;;;;;;0.18;70.44;95570.03;5030111;28;20214;-80
2021/01/15 04:46:30;;;;;;;10.27;9.07;;;;;;;0.20;70.41;95571.50;5030179;28;20194;-81
2021/01/15 04:48:57;;;;;;;13.20;10.00;;;;;;;0.27;70.22;95574.38;5029689;28;20222;-81
2021/01/15 04:51:25;;;;;;;11.60;9.73;;;;;;;0.26;69.88;95586.25;5029996;28;20217;-83
2021/01/15 04:53:56;;;;;;;11.37;9.30;;;;;;;0.26;70.16;95587.97;5030705;28;20685;-81
2021/01/15 04:56:39;;;;;;;11.97;9.70;;;;;;;0.22;69.94;95589.09;5029409;28;20199;-82
2021/01/15 04:59:07;;;;;;;12.53;9.77;;;;;;;0.04;70.69;95586.22;5030141;28;20605;-80
2021/01/15 05:01:37;;;;;;;13.97;10.57;;;;;;;-0.10;70.96;95594.81;5030711;28;20210;-82
2021/01/15 05:04:08;;;;;;;10.73;9.60;;;;;;;-0.10;71.34;95579.63;5030319;28;20224;-82
2021/01/15 05:06:45;;;;;;;11.47;10.10;;;;;;;-0.05;71.21;95590.22;5032609;28;20681;-82
2021/01/15 05:09:12;;;;;;;13.73;10.47;;;;;;;0.00;70.88;95592.44;5034470;28;20241;-79
2021/01/15 05:11:39;;;;;;;13.20;10.67;;;;;;;0.04;71.22;95588.75;5033901;28;20194;-82
2021/01/15 05:14:08;;;;;;;11.13;9.43;;;;;;;0.08;70.65;95592.66;5033810;28;20206;-81
2021/01/15 05:16:37;;;;;;;11.57;9.90;;;;;;;0.11;70.41;95600.03;5033803;28;20230;-81
2021/01/15 05:19:03;;;;;;;11.77;9.97;;;;;;;0.12;70.27;95603.38;5034286;28;20256;-82
2021/01/15 05:21:30;;;;;;;11.73;10.13;;;;;;;0.12;69.67;95598.31;5033063;28;20198;-80
2021/01/15 05:23:56;;;;;;;12.30;10.00;;;;;;;0.10;69.31;95608.53;5034125;28;20217;-81
2021/01/15 05:26:24;;;;;;;12.93;10.37;;;;;;;0.10;69.09;95597.63;5033014;28;20268;-81
2021/01/15 05:28:51;;;;;;;12.90;10.13;;;;;;;0.07;69.32;95596.09;5033100;28;20265;-80
2021/01/15 05:31:17;;;;;;;11.47;10.27;;;;;;;0.00;69.35;95602.56;5033259;28;20205;-81
2021/01/15 05:34:03;;;;;;;13.77;10.10;;;;;;;-0.05;69.39;95610.47;5032510;28;20221;-80
2021/01/15 05:36:30;;;;;;;14.23;10.47;;;;;;;0.03;70.31;95617.50;5016322;28;20198;-81
2021/01/15 05:39:07;;;;;;;12.07;9.90;;;;;;;-0.01;69.11;95618.66;5033488;28;20241;-80
2021/01/15 05:41:33;;;;;;;13.37;9.73;;;;;;;-0.08;68.89;95618.28;5028736;28;20202;-82
2021/01/15 05:43:59;;;;;;;14.93;10.60;;;;;;;-0.41;69.88;95616.44;5030017;28;20274;-82
2021/01/15 05:46:25;;;;;;;12.77;10.03;;;;;;;-0.47;70.25;95618.59;5030073;28;20206;-82
2021/01/15 05:48:53;;;;;;;12.93;10.20;;;;;;;-0.57;71.08;95620.94;5027718;28;20222;-82
2021/01/15 05:51:24;;;;;;;12.43;10.17;;;;;;;-0.48;70.81;95632.16;5025904;28;20232;-80
2021/01/15 05:53:51;;;;;;;11.90;10.00;;;;;;;-0.48;70.14;95622.84;5027235;28;20190;-81
2021/01/15 05:56:19;;;;;;;13.17;10.23;;;;;;;-0.66;70.18;95629.19;5032133;28;20214;-81
2021/01/15 05:59:00;;;;;;;13.60;10.33;;;;;;;-0.89;70.42;95638.38;5033243;28;20226;-80
2021/01/15 06:01:39;;;;;;;85.27;55.90;;;;;;;-0.89;70.91;95635.84;5041627;28;20658;-82
2021/01/15 06:04:05;;;;;;;34.20;24.07;;;;;;;-0.86;71.41;95643.22;5032231;28;20229;-83
2021/01/15 06:06:31;;;;;;;17.37;13.07;;;;;;;-0.86;71.94;95642.41;5032171;28;20237;-83
2021/01/15 06:08:59;;;;;;;13.03;10.80;;;;;;;-0.95;71.73;95659.00;5030753;28;20225;-81
2021/01/15 06:11:26;;;;;;;12.63;9.97;;;;;;;-0.87;72.19;95655.97;5026267;28;20225;-80
2021/01/15 06:13:52;;;;;;;12.03;10.07;;;;;;;-0.86;72.17;95660.09;5031401;28;20186;-81
2021/01/15 06:16:19;;;;;;;14.37;11.13;;;;;;;-0.82;71.68;95676.69;5032376;28;20213;-80
2021/01/15 06:18:57;;;;;;;12.73;10.87;;;;;;;-0.75;71.52;95675.31;5031313;28;20242;-83
2021/01/15 06:21:30;;;;;;;15.83;11.03;;;;;;;-0.66;71.27;95663.78;5031706;28;20198;-81
2021/01/15 06:23:59;;;;;;;12.00;10.00;;;;;;;-0.62;70.89;95670.25;5030208;28;20237;-81
2021/01/15 06:26:33;;;;;;;14.13;10.37;;;;;;;-0.62;71.53;95678.63;5032167;28;20205;-81
2021/01/15 06:29:05;;;;;;;14.77;11.37;;;;;;;-0.59;71.62;95670.03;5031984;28;20233;-82
2021/01/15 06:31:42;;;;;;;14.80;11.63;;;;;;;-0.59;72.07;95675.91;5031976;28;20833;-83
2021/01/15 06:34:08;;;;;;;40.40;27.43;;;;;;;-0.63;71.22;95692.19;5031570;28;20553;-82
2021/01/15 06:36:50;;;;;;;51.77;33.83;;;;;;;-0.56;71.25;95690.03;5031464;28;20209;-83
2021/01/15 06:39:17;;;;;;;19.63;15.10;;;;;;;-0.51;71.99;95693.06;5028277;28;20222;-82
2021/01/15 06:41:44;;;;;;;20.27;14.37;;;;;;;-0.63;72.50;95698.97;5031957;28;20197;-80
2021/01/15 06:44:12;;;;;;;19.57;13.73;;;;;;;-0.66;73.05;95704.22;5036426;28;20217;-80
2021/01/15 06:46:45;;;;;;;17.87;13.80;;;;;;;-0.62;73.30;95706.44;5031188;28;20226;-82
2021/01/15 06:49:17;;;;;;;17.60;11.50;;;;;;;-0.28;97.57;95711.69;5010840;28;20630;-80
2021/01/15 06:52:00;;;;;;;17.73;12.93;;;;;;;0.34;99.98;95714.81;5030222;28;20201;-79
2021/01/15 06:54:33;;;;;;;17.63;13.13;;;;;;;0.66;87.95;95720.06;5030780;28;20727;-81
2021/01/15 06:57:11;;;;;;;18.53;13.30;;;;;;;0.47;73.86;95719.78;5031017;28;20201;-82
2021/01/15 06:59:38;;;;;;;18.90;14.20;;;;;;;0.34;73.28;95722.41;5015686;28;20682;-83
2021/01/15 07:02:12;;;;;;;18.20;13.10;;;;;;;0.23;73.01;95728.25;5038075;28;20199;-80
2021/01/15 07:04:58;;;;;;;17.67;13.40;;;;;;;-0.05;73.16;95733.66;5030735;28;20212;-82
2021/01/15 07:07:26;;;;;;;19.07;13.97;;;;;;;-0.49;74.89;95734.22;5031832;28;20292;-82
2021/01/15 07:09:53;;;;;;;18.50;13.93;;;;;;;-0.56;76.09;95738.06;5031343;28;20194;-83
2021/01/15 07:12:21;;;;;;;20.03;14.70;;;;;;;-0.88;78.15;95743.59;5032353;28;20194;-83
2021/01/15 07:14:51;;;;;;;85.50;55.40;;;;;;;-0.98;79.15;95747.66;5031312;28;20198;-81
2021/01/15 07:17:27;;;;;;;32.47;22.80;;;;;;;-0.90;78.75;95747.13;5030802;28;20203;-81
2021/01/15 07:20:04;;;;;;;26.77;18.67;;;;;;;-0.97;79.07;95754.34;5030957;28;20208;-82
2021/01/15 07:22:36;;;;;;;22.77;16.07;;;;;;;-1.06;79.68;95754.94;5031063;28;20221;-81
2021/01/15 07:25:05;;;;;;;29.30;17.60;;;;;;;-1.24;80.01;95759.47;5030571;28;20200;-82
2021/01/15 07:27:33;;;;;;;25.50;17.30;;;;;;;-1.16;80.22;95762.31;5030876;28;20442;-80
2021/01/15 07:29:59;;;;;;;21.57;15.37;;;;;;;-1.10;80.19;95766.94;5031372;28;20576;-82
2021/01/15 07:32:27;;;;;;;22.67;15.60;;;;;;;-1.09;80.29;95771.09;5032153;28;20234;-81
2021/01/15 07:34:57;;;;;;;20.60;15.30;;;;;;;-0.99;79.34;95767.97;5031409;28;20202;-81
2021/01/15 07:37:25;;;;;;;20.93;15.90;;;;;;;-1.15;80.55;95770.69;5032472;28;20705;-82
2021/01/15 07:40:09;;;;;;;22.43;15.77;;;;;;;-1.09;80.58;95772.81;5033227;28;20646;-82
2021/01/15 07:42:53;;;;;;;20.10;14.00;;;;;;;-0.98;80.24;95783.03;5031782;28;20201;-82
2021/01/15 07:45:56;;;;;;;19.70;13.37;;;;;;;-0.95;79.75;95784.53;5031410;28;20205;-81
2021/01/15 07:48:22;;;;;;;29.70;21.07;;;;;;;-1.06;80.30;95785.25;5021426;28;20218;-79
2021/01/15 07:50:50;;;;;;;64.13;42.83;;;;;;;-0.94;81.01;95786.16;5030889;28;20637;-83
2021/01/15 07:53:29;;;;;;;25.70;18.50;;;;;;;-0.72;79.08;95793.91;5023835;28;20201;-79
2021/01/15 07:55:57;;;;;;;20.57;14.63;;;;;;;-0.77;78.18;95790.91;5030828;28;20197;-82
2021/01/15 07:58:25;;;;;;;19.03;14.77;;;;;;;-0.64;77.99;95798.47;5029763;28;20225;-80
2021/01/15 08:00:52;;;;;;;18.43;14.13;;;;;;;-0.73;78.10;95793.13;5034001;28;20199;-81
2021/01/15 08:03:19;;;;;;;19.27;14.50;;;;;;;-0.61;78.05;95805.84;5029789;28;20943;-82
2021/01/15 08:05:46;;;;;;;20.33;13.97;;;;;;;-0.70;77.73;95804.75;5030525;28;20201;-80
2021/01/15 08:08:14;;;;;;;19.13;13.50;;;;;;;-0.67;77.88;95803.72;5029732;28;20222;-83
2021/01/15 08:10:45;;;;;;;18.63;13.77;;;;;;;-0.76;77.82;95805.94;5030179;28;20194;-82
2021/01/15 08:13:22;;;;;;;18.53;14.40;;;;;;;-0.77;78.63;95801.81;5030713;28;20216;-81
2021/01/15 08:15:50;;;;;;;19.20;13.90;;;;;;;-0.76;77.41;95808.47;5030795;28;20208;-82
2021/01/15 08:18:16;;;;;;;20.07;14.03;;;;;;;-0.59;76.83;95807.38;5029523;28;20246;-82
2021/01/15 08:20:50;;;;;;;19.63;13.50;;;;;;;-0.51;76.03;95815.25;5030189;28;20198;-82
2021/01/15 08:23:21;;;;;;;18.63;13.37;;;;;;;-0.54;77.59;95823.03;5028545;28;20213;-81
2021/01/15 08:25:48;;;;;;;74.13;49.40;;;;;;;-0.41;76.86;95826.38;5030054;28;20190;-83
2021/01/15 08:28:14;;;;;;;23.10;15.57;;;;;;;-0.50;76.64;95826.16;5029559;28;20218;-79
2021/01/15 08:30:40;;;;;;;19.03;14.07;;;;;;;-0.57;76.92;95827.47;5023180;28;20206;-82
2021/01/15 08:33:07;;;;;;;18.87;13.80;;;;;;;-0.43;77.17;95825.66;5029580;28;20194;-79
2021/01/15 08:35:33;;;;;;;18.97;13.97;;;;;;;-0.51;76.69;95830.41;5029019;28;20193;-81
2021/01/15 08:38:01;;;;;;;16.57;12.00;;;;;;;-0.47;76.18;95826.78;5030937;28;20593;-82
2021/01/15 08:40:29;;;;;;;16.03;12.97;;;;;;;-0.28;75.41;95830.59;5031388;28;20584;-81
2021/01/15 08:42:56;;;;;;;16.40;12.77;;;;;;;-0.46;76.35;95830.91;5032103;28;20229;-79
2021/01/15 08:45:27;;;;;;;18.60;13.07;;;;;;;-0.36;76.19;95842.03;5033516;28;20289;-82
2021/01/15 08:47:55;;;;;;;16.37;11.90;;;;;;;-0.11;75.48;95838.63;5033672;28;20240;-81
2021/01/15 08:50:23;;;;;;;17.13;12.70;;;;;;;0.22;73.85;95842.28;5034056;28;20289;-82
2021/01/15 08:52:50;;;;;;;17.77;13.13;;;;;;;0.27;72.98;95846.09;5033084;28;20190;-81
2021/01/15 08:55:18;;;;;;;16.43;12.73;;;;;;;0.38;72.13;95837.78;5033332;28;20586;-83
2021/01/15 08:57:47;;;;;;;16.93;12.87;;;;;;;0.53;72.61;95851.06;5034122;28;20217;-82
2021/01/15 09:00:15;;;;;;;18.10;13.70;;;;;;;0.80;71.23;95850.81;5034949;28;20207;-83
2021/01/15 09:02:43;;;;;;;18.67;13.37;;;;;;;0.93;70.29;95847.31;5039125;28;20632;-82
2021/01/15 09:05:10;;;;;;;16.07;12.73;;;;;;;1.02;70.21;95851.69;5033358;28;20672;-81
2021/01/15 09:07:44;;;;;;;15.70;12.57;;;;;;;1.16;68.82;95860.00;5032933;28;20210;-81
2021/01/15 09:10:12;;;;;;;15.80;12.73;;;;;;;1.42;67.18;95855.56;5033321;28;20280;-82
2021/01/15 09:12:42;;;;;;;14.70;11.97;;;;;;;1.47;66.67;95863.66;5032537;28;20478;-81
2021/01/15 09:15:18;;;;;;;14.97;11.23;;;;;;;1.55;66.55;95861.34;5032990;28;20252;-80
2021/01/15 09:17:44;;;;;;;14.43;12.07;;;;;;;1.64;66.13;95871.63;5033229;28;20209;-83
2021/01/15 09:20:11;;;;;;;16.53;12.30;;;;;;;1.68;65.39;95867.13;5033216;28;20808;-81
2021/01/15 09:22:37;;;;;;;15.03;11.17;;;;;;;1.52;64.42;95862.41;5032691;28;20202;-82
2021/01/15 09:25:05;;;;;;;16.20;12.10;;;;;;;1.60;64.65;95871.94;5033465;28;20256;-82
2021/01/15 09:27:31;;;;;;;15.93;11.17;;;;;;;1.26;64.67;95864.31;5033317;28;20221;-81
2021/01/15 09:29:57;;;;;;;44.03;30.53;;;;;;;1.34;66.05;95878.97;5034191;28;20202;-82
2021/01/15 09:32:23;;;;;;;31.03;21.93;;;;;;;1.77;65.48;95878.31;5033136;28;20237;-83
2021/01/15 09:34:49;;;;;;;22.33;14.40;;;;;;;2.22;64.40;95876.53;5032771;28;20194;-82
2021/01/15 09:37:15;;;;;;;15.33;11.90;;;;;;;2.57;64.44;95874.59;5032748;28;20618;-83
2021/01/15 09:39:41;;;;;;;15.37;12.17;;;;;;;3.02;63.22;95884.63;5032834;28;20194;-81
2021/01/15 09:42:10;;;;;;;15.10;12.47;;;;;;;3.24;61.00;95884.50;5031899;28;20626;-81
2021/01/15 09:44:36;;;;;;;16.20;11.60;;;;;;;3.20;60.18;95883.13;5031674;28;20214;-82
2021/01/15 09:47:05;;;;;;;15.30;11.93;;;;;;;3.41;60.61;95890.78;5033014;28;20202;-83
2021/01/15 09:49:31;;;;;;;13.60;11.57;;;;;;;3.40;60.16;95881.50;5032722;28;20585;-80
2021/01/15 09:51:58;;;;;;;11.13;8.87;;;;;;;3.77;76.21;95887.75;5031741;28;20309;-81
2021/01/15 09:54:24;;;;;;;15.30;11.93;;;;;;;3.92;59.45;95889.94;5032775;28;20209;-82
2021/01/15 09:56:49;;;;;;;14.60;11.63;;;;;;;4.01;59.03;95890.00;5033446;28;20229;-83
2021/01/15 09:59:17;;;;;;;17.93;12.73;;;;;;;3.70;57.83;95889.16;5033356;28;20264;-82
2021/01/15 10:01:45;;;;;;;15.83;11.67;;;;;;;3.49;59.19;95888.38;5043838;28;20202;-81
2021/01/15 10:04:11;;;;;;;15.53;11.97;;;;;;;3.06;58.53;95886.00;5034174;28;20214;-82
2021/01/15 10:06:38;;;;;;;15.30;11.63;;;;;;;2.87;60.11;95890.94;5033424;28;20205;-81
2021/01/15 10:09:04;;;;;;;11.90;10.53;;;;;;;3.06;60.93;95886.78;5033300;28;20234;-82
2021/01/15 10:11:31;;;;;;;14.03;11.30;;;;;;;3.36;60.05;95887.78;5031669;28;20198;-82
2021/01/15 10:13:59;;;;;;;13.83;11.33;;;;;;;3.53;59.32;95889.75;5032065;28;20195;-80
2021/01/15 10:16:27;;;;;;;14.70;12.10;;;;;;;3.30;59.06;95891.63;5032118;28;20198;-81
2021/01/15 10:18:53;;;;;;;16.10;11.67;;;;;;;3.34;59.61;95900.63;5031620;28;20225;-82
2021/01/15 10:21:20;;;;;;;14.03;11.37;;;;;;;3.46;59.51;95898.84;5031168;28;20633;-80
2021/01/15 10:23:47;;;;;;;12.80;10.63;;;;;;;3.64;59.24;95902.44;5030874;28;20210;-80
2021/01/15 10:26:21;;;;;;;12.30;10.67;;;;;;;3.86;58.41;95901.44;5032646;28;20202;-81
2021/01/15 10:28:47;;;;;;;15.00;11.47;;;;;;;4.05;58.01;95901.50;5031507;28;20229;-81
2021/01/15 10:31:13;;;;;;;12.63;10.90;;;;;;;4.19;57.38;95902.91;5031698;28;20204;-81
2021/01/15 10:33:39;;;;;;;54.23;38.60;;;;;;;4.18;56.37;95903.06;5032808;28;20198;-79
2021/01/15 10:36:06;;;;;;;16.43;12.23;;;;;;;3.90;56.01;95905.34;5033801;28;20309;-83
2021/01/15 10:38:32;;;;;;;12.00;9.90;;;;;;;3.93;56.91;95906.84;5032590;28;20218;-82
2021/01/15 10:40:58;;;;;;;11.97;10.40;;;;;;;3.78;56.53;95902.09;5032209;28;20739;-81
2021/01/15 10:43:24;;;;;;;13.40;10.37;;;;;;;3.69;56.79;95902.03;5030912;28;20933;-82
2021/01/15 10:45:50;;;;;;;13.67;10.73;;;;;;;3.80;57.81;95907.88;5031469;28;20233;-82
2021/01/15 10:48:16;;;;;;;29.30;21.50;;;;;;;3.96;57.85;95898.94;5032743;28;20799;-82
2021/01/15 10:50:43;;;;;;;35.17;26.77;;;;;;;4.08;57.84;95910.66;5029824;28;20202;-82
2021/01/15 10:53:09;;;;;;;17.43;14.23;;;;;;;4.09;56.37;95904.63;5031272;28;20278;-80
2021/01/15 10:55:34;;;;;;;12.57;10.07;;;;;;;4.20;56.61;95899.44;5030749;28;20194;-82
2021/01/15 10:58:00;;;;;;;12.97;11.17;;;;;;;4.18;57.14;95906.41;5031559;28;20218;-81
2021/01/15 11:00:26;;;;;;;14.03;12.00;;;;;;;4.03;57.45;95903.41;5032833;28;20225;-81
2021/01/15 11:02:52;;;;;;;15.00;12.67;;;;;;;4.15;57.84;95901.56;5035215;28;20201;-82
2021/01/15 11:05:19;;;;;;;14.67;11.80;;;;;;;4.20;58.43;95903.72;5031361;28;20205;-82
2021/01/15 11:07:46;;;;;;;15.60;12.00;;;;;;;4.13;58.23;95894.03;5031493;28;20639;-82
2021/01/15 11:10:13;;;;;;;17.00;12.93;;;;;;;4.11;58.33;95906.09;5031644;28;20221;-82
2021/01/15 11:12:39;;;;;;;15.50;12.63;;;;;;;4.16;58.40;95909.06;5029351;28;20202;-81
2021/01/15 11:15:07;;;;;;;14.60;12.33;;;;;;;4.11;58.07;95907.84;5031011;28;20190;-81
2021/01/15 11:17:36;;;;;;;12.93;11.37;;;;;;;4.02;57.67;95911.19;5031044;28;20225;-82
2021/01/15 11:20:02;;;;;;;14.33;11.60;;;;;;;4.13;57.85;95909.34;5030524;28;20257;-82
2021/01/15 11:22:28;;;;;;;12.20;10.57;;;;;;;4.28;57.35;95911.50;5031069;28;20208;-83
2021/01/15 11:24:54;;;;;;;15.97;12.00;;;;;;;4.28;57.07;95906.41;5031497;28;20214;-82
2021/01/15 11:27:20;;;;;;;14.20;11.40;;;;;;;4.15;56.97;95910.00;5031700;28;20198;-82
2021/01/15 11:29:46;;;;;;;14.03;11.70;;;;;;;4.16;57.58;95903.19;5031250;28;20710;-83
2021/01/15 11:32:12;;;;;;;13.87;11.10;;;;;;;4.26;57.24;95901.44;5030195;28;20198;-80
2021/01/15 11:34:38;;;;;;;14.33;12.03;;;;;;;4.30;57.35;95907.91;5030939;28;20212;-80
2021/01/15 11:37:04;;;;;;;13.40;11.90;;;;;;;4.38;56.77;95907.25;5031706;28;20218;-81